Mapa de nuvens (SC)

Imagem satélite Climatempo

Mapa GOES 13 Colorida (Sul)

Imagem satélite Climatempo

Radar de chuvas (Lontras/SC)

Radar Ciram Epagri

Mapa de raios

Radios Simepar

Previsão para Florianópolis

Segunda-feira

Essencialmente limpo. Máxima de 20°C. Ventos S a 15 a 25 km/h.


Segunda à noite

Essencialmente limpo. Mínima 15°C. Ventos N a 10 a 15 km/h.


Terça-feira

Parcialmente Nublado

23º / 19º

Quarta-feira

Possibilidade de Chuva

22º / 20º

Quinta-feira

Possibilidade de Trovoada

24º / 20º

Aeroporto Florianópolis/SC (FLN) - SBFL


Situação: Aberto para pouso e decolagem

Atualização: 0557 UTC 23 Oct 2017

Vento: 02KT (3,9 Km/h) - Norte (N) (VRBº)

Visibilidade: Maior que 10.000 metros (céu limpo)

Temperatura: 15ºC / 10ºC

Pressão: 1019 hPa

Data at: 0557 UTC 23 Oct 2017SBFL 230500Z VRB02KT CAVOK 15/10 Q1019